FW7753 Weather Reports


Display with metric or nautical units.
time (UTC)temp
F
wind
direction
speed
MPH
gust
MPH
rain 1hr
in
rain 24hr
in
rain mn
in
humidity
%
barometer
mb
20210920212127 86 264 1.0 3.0 0.00 0.00 0.00 87 1016.4
20210920211627 86 264 0.0 3.0 0.00 0.00 0.00 87 1016.4
20210920211127 85 264 1.0 4.0 0.00 0.00 0.00 87 1016.4
20210920210626 85 264 1.0 4.0 0.00 0.00 0.00 87 1016.4
20210920210124 85 176 3.0 7.0 0.00 0.00 0.00 87 1016.4
20210920205622 85 176 3.0 7.0 0.00 0.00 0.00 87 1016.4
20210920205121 85 264 1.0 3.0 0.00 0.00 0.00 86 1016.4
20210920204620 85 264 0.0 4.0 0.00 0.00 0.00 86 1016.4
20210920204118 85 264 1.0 4.0 0.00 0.00 0.00 86 1016.4
20210920203616 85 264 0.0 1.0 0.00 0.00 0.00 86 1016.4
20210920203115 85 264 0.0 0.0 0.00 0.00 0.00 86 1016.4
20210920202615 85 264 1.0 4.0 0.00 0.00 0.00 86 1016.4
20210920202114 85 264 0.0 3.0 0.00 0.00 0.00 86 1016.4
20210920201613 85 264 3.0 5.0 0.00 0.00 0.00 87 1016.4
20210920201113 85 264 1.0 3.0 0.00 0.00 0.00 87 1016.4
20210920200611 85 220 1.0 3.0 0.00 0.00 0.00 87 1016.4
20210920200108 85 264 1.0 4.0 0.00 0.00 0.00 87 1016.4
20210920195608 85 264 1.0 4.0 0.00 0.00 0.00 87 1016.4
20210920195107 85 176 1.0 4.0 0.00 0.00 0.00 87 1016.4
20210920194605 85 264 3.0 5.0 0.00 0.00 0.00 87 1016.4
20210920194103 85 176 3.0 5.0 0.00 0.00 0.00 88 1016.4
20210920193602 85 264 1.0 4.0 0.00 0.00 0.00 88 1016.7
20210920193051 85 264 1.0 5.0 0.00 0.00 0.00 88 1016.4
20210920192550 85 176 1.0 4.0 0.00 0.00 0.00 88 1016.7
20210920192045 85 264 1.0 5.0 0.00 0.00 0.00 88 1016.7
20210920191544 85 264 0.0 3.0 0.00 0.00 0.00 88 1016.7
20210920191042 85 264 1.0 3.0 0.00 0.00 0.00 89 1016.7
20210920190541 85 264 0.0 4.0 0.00 0.00 0.00 89 1016.7
20210920190041 84 220 0.0 3.0 0.00 0.00 0.00 89 1016.7
20210920185540 84 264 3.0 4.0 0.00 0.00 0.00 89 1016.7
20210920185038 84 264 1.0 4.0 0.00 0.00 0.00 89 1017.0
20210920184537 84 264 1.0 3.0 0.00 0.00 0.00 89 1016.7
20210920184035 84 264 4.0 8.0 0.00 0.00 0.00 89 1016.7
20210920183533 84 264 1.0 5.0 0.00 0.00 0.00 89 1017.0
20210920183032 84 264 1.0 5.0 0.00 0.00 0.00 90 1016.7
20210920182530 84 176 3.0 7.0 0.00 0.00 0.00 90 1016.7
20210920182027 84 264 0.0 3.0 0.00 0.00 0.00 91 1017.0
20210920181527 84 264 0.0 1.0 0.00 0.00 0.00 90 1017.0
20210920181027 84 264 1.0 7.0 0.00 0.00 0.00 91 1017.0
20210920180524 84 264 0.0 3.0 0.00 0.00 0.00 91 1017.0
20210920180022 83 264 0.0 3.0 0.00 0.00 0.00 91 1017.0
20210920175520 83 264 1.0 4.0 0.00 0.00 0.00 91 1017.4
20210920175020 83 264 1.0 4.0 0.00 0.00 0.00 91 1017.4
20210920174518 83 264 1.0 5.0 0.00 0.00 0.00 91 1017.4
20210920174017 83 264 1.0 4.0 0.00 0.00 0.00 91 1017.4
20210920173514 83 176 1.0 5.0 0.00 0.00 0.00 92 1017.4
20210920173014 83 264 1.0 4.0 0.00 0.00 0.00 92 1017.4
20210920172514 83 220 1.0 5.0 0.00 0.00 0.00 92 1017.7
20210920172012 83 264 0.0 3.0 0.00 0.00 0.00 93 1017.4
20210920171509 82 264 0.0 0.0 0.00 0.00 0.00 93 1017.4
20210920171009 82 264 1.0 4.0 0.00 0.00 0.00 93 1017.4
20210920170507 82 176 0.0 3.0 0.00 0.00 0.00 93 1017.4
20210920170006 82 264 0.0 1.0 0.00 0.00 0.00 93 1017.4
20210920165506 82 264 1.0 5.0 0.00 0.00 0.00 94 1017.4
20210920165004 82 264 1.0 4.0 0.00 0.00 0.00 94 1017.4
20210920164501 82 264 0.0 0.0 0.00 0.00 0.00 95 1017.7
20210920164000 82 264 0.0 0.0 0.00 0.00 0.00 95 1017.4
20210920163454 82 264 0.0 3.0 0.00 0.00 0.00 95 1017.4
20210920162954 82 264 0.0 0.0 0.00 0.00 0.00 95 1017.4
20210920162454 82 264 0.0 0.0 0.00 0.00 0.00 96 1017.4
20210920161952 82 264 0.0 0.0 0.00 0.00 0.00 96 1017.4
20210920161449 82 264 0.0 0.0 0.00 0.00 0.00 96 1017.4
20210920160947 82 264 0.0 0.0 0.00 0.00 0.00 96 1017.4
20210920160447 82 264 0.0 0.0 0.00 0.00 0.00 96 1017.4
20210920155946 82 264 0.0 0.0 0.00 0.00 0.00 97 1017.7
20210920155443 82 264 0.0 0.0 0.00 0.00 0.00 97 1017.0
20210920154943 82 264 0.0 0.0 0.00 0.00 0.00 97 1017.0
20210920154442 81 264 0.0 0.0 0.00 0.00 0.00 97 1017.4
20210920153939 81 264 0.0 0.0 0.00 0.00 0.00 98 1017.4
20210920153438 81 264 0.0 0.0 0.00 0.00 0.00 98 1017.4
20210920152936 81 264 0.0 0.0 0.00 0.00 0.00 98 1017.0
20210920152433 81 264 0.0 0.0 0.00 0.00 0.00 98 1017.0
20210920151932 81 264 0.0 0.0 0.00 0.00 0.00 98 1017.4
20210920151428 81 264 0.0 0.0 0.00 0.00 0.00 98 1017.4
20210920150928 80 264 0.0 0.0 0.00 0.00 0.00 98 1017.4
20210920150425 80 264 0.0 0.0 0.00 0.00 0.00 98 1017.0
20210920145923 80 264 0.0 0.0 0.00 0.00 0.00 99 1017.0
20210920145423 80 264 0.0 0.0 0.00 0.00 0.00 99 1017.0
20210920144923 80 264 0.0 0.0 0.00 0.00 0.00 99 1017.0
20210920144419 79 264 0.0 0.0 0.00 0.00 0.00 99 1016.7
20210920143917 79 264 0.0 0.0 0.00 0.00 0.00 99 1016.7
20210920143417 79 264 0.0 0.0 0.00 0.00 0.00 99 1016.7
20210920142913 79 264 0.0 0.0 0.00 0.00 0.00 99 1016.4
20210920142413 79 264 0.0 0.0 0.00 0.00 0.00 99 1016.4
20210920141904 79 264 0.0 0.0 0.00 0.00 0.00 99 1016.4
20210920141359 79 264 0.0 0.0 0.00 0.00 0.00 99 1016.4
20210920140858 78 264 0.0 0.0 0.00 0.00 0.00 99 1016.4
20210920140356 78 264 0.0 0.0 0.00 0.00 0.00 99 1016.4
20210920135855 78 264 0.0 0.0 0.00 0.00 0.00 99 1016.4
20210920135350 78 264 0.0 0.0 0.00 0.00 0.00 99 1016.4
20210920134850 78 264 0.0 0.0 0.00 0.00 0.00 99 1016.4
20210920134346 78 264 0.0 1.0 0.00 0.00 0.00 99 1016.4
20210920133844 78 264 0.0 0.0 0.00 0.00 0.00 99 1016.4
20210920133343 78 264 0.0 0.0 0.00 0.00 0.00 99 1016.4
20210920132842 78 264 0.0 0.0 0.00 0.00 0.00 99 1016.4
20210920132341 77 264 0.0 0.0 0.00 0.00 0.00 99 1016.4
20210920131840 77 264 0.0 0.0 0.00 0.00 0.00 99 1016.4
20210920131339 77 264 0.0 0.0 0.00 0.00 0.00 99 1016.4
20210920130838 77 264 0.0 0.0 0.00 0.00 0.00 99 1016.4
20210920130338 77 264 0.0 0.0 0.00 0.00 0.00 99 1016.4
20210920125835 77 264 0.0 0.0 0.00 0.00 0.00 99 1016.4
20210920125334 77 264 0.0 0.0 0.00 0.00 0.00 99 1016.4
20210920124829 77 264 0.0 0.0 0.00 0.00 0.00 99 1016.0
20210920124328 76 264 0.0 0.0 0.00 0.00 0.00 99 1016.4
20210920123828 76 264 0.0 0.0 0.00 0.00 0.00 99 1016.4
20210920123326 76 264 0.0 0.0 0.00 0.00 0.00 98 1016.0
20210920122826 76 264 0.0 0.0 0.00 0.00 0.00 99 1016.4
20210920122325 76 264 0.0 0.0 0.00 0.00 0.00 99 1016.0
20210920121818 76 264 0.0 0.0 0.00 0.00 0.00 99 1016.0
20210920121317 76 264 0.0 0.0 0.00 0.00 0.00 99 1016.0
20210920120815 77 264 0.0 0.0 0.00 0.00 0.00 99 1016.0
20210920120314 76 264 0.0 0.0 0.00 0.00 0.00 98 1015.7
20210920115813 77 264 0.0 0.0 0.00 0.00 0.00 99 1016.0
20210920115312 77 264 0.0 0.0 0.00 0.00 0.00 99 1015.7
20210920114811 76 264 0.0 0.0 0.00 0.00 0.00 98 1015.7
20210920114311 76 264 0.0 0.0 0.00 0.00 0.00 99 1015.7
20210920113809 77 264 0.0 0.0 0.00 0.00 0.00 99 1015.7
20210920113308 77 264 0.0 0.0 0.00 0.00 0.00 99 1015.7
20210920112807 77 264 0.0 0.0 0.00 0.00 0.00 99 1015.7
20210920112306 77 264 0.0 0.0 0.00 0.00 0.00 98 1015.7
20210920111806 77 264 0.0 0.0 0.00 0.00 0.00 98 1015.7
20210920111305 77 264 0.0 0.0 0.00 0.00 0.00 98 1015.7
20210920110805 76 264 0.0 0.0 0.00 0.00 0.00 98 1015.3
20210920110304 76 264 0.0 0.0 0.00 0.00 0.00 98 1015.3
20210920105803 76 264 0.0 0.0 0.00 0.00 0.00 98 1015.3
20210920105301 76 264 0.0 0.0 0.00 0.00 0.00 98 1015.3
20210920104759 76 264 0.0 0.0 0.00 0.00 0.00 98 1015.3
20210920104256 76 264 0.0 0.0 0.00 0.00 0.00 98 1015.3
20210920103756 76 264 0.0 0.0 0.00 0.00 0.00 98 1015.3
20210920103256 76 264 0.0 0.0 0.00 0.00 0.00 98 1015.3
20210920102754 76 264 0.0 0.0 0.00 0.00 0.00 98 1015.3
20210920102253 76 264 0.0 0.0 0.00 0.00 0.00 98 1015.3
20210920101752 76 264 0.0 0.0 0.00 0.00 0.00 98 1015.3
20210920101250 76 264 0.0 0.0 0.00 0.00 0.00 98 1015.0
20210920100748 76 264 0.0 0.0 0.00 0.00 0.00 98 1015.3
20210920100245 76 264 0.0 0.0 0.00 0.00 0.00 98 1015.0
20210920095744 76 264 0.0 0.0 0.00 0.00 0.00 98 1015.0
20210920095242 76 264 0.0 0.0 0.00 0.00 0.00 98 1015.3
20210920094740 76 264 0.0 0.0 0.00 0.00 0.00 98 1015.0
20210920094239 76 264 0.0 0.0 0.00 0.00 0.00 98 1015.0
20210920093737 76 264 0.0 0.0 0.00 0.00 0.00 98 1015.0
20210920093235 76 264 0.0 0.0 0.00 0.00 0.00 98 1015.0
20210920092735 76 264 0.0 0.0 0.00 0.00 0.00 98 1014.7
20210920092231 76 264 0.0 0.0 0.00 0.00 0.00 98 1014.7
20210920091730 76 264 0.0 0.0 0.00 0.00 0.00 98 1014.7
20210920091229 76 264 0.0 0.0 0.00 0.00 0.00 98 1015.0
20210920090727 76 264 0.0 0.0 0.00 0.00 0.00 98 1015.0
20210920090226 76 264 0.0 0.0 0.00 0.00 0.00 98 1015.0
20210920085724 76 264 0.0 0.0 0.00 0.00 0.00 98 1015.0
20210920085222 77 264 0.0 0.0 0.00 0.00 0.00 98 1015.0
20210920084720 77 264 0.0 0.0 0.00 0.00 0.00 98 1014.7
20210920084206 77 264 0.0 0.0 0.00 0.00 0.00 98 1014.7
20210920083700 77 264 0.0 0.0 0.00 0.00 0.00 98 1015.0
20210920083158 77 264 0.0 0.0 0.00 0.00 0.00 98 1014.7
20210920082657 76 264 0.0 0.0 0.00 0.00 0.00 98 1015.0
20210920082155 77 264 0.0 0.0 0.00 0.00 0.00 98 1015.0
20210920081654 77 264 0.0 0.0 0.00 0.00 0.00 98 1015.0
20210920081154 77 264 0.0 0.0 0.00 0.00 0.00 98 1015.0
20210920080646 77 264 0.0 0.0 0.00 0.00 0.00 98 1015.0
20210920080143 77 264 0.0 0.0 0.00 0.00 0.00 98 1015.0
20210920075643 77 264 0.0 0.0 0.00 0.00 0.00 98 1015.0
20210920075142 77 264 0.0 0.0 0.00 0.00 0.00 98 1015.3
20210920074641 77 264 0.0 0.0 0.00 0.00 0.00 98 1015.0
20210920074140 77 264 0.0 0.0 0.00 0.00 0.00 98 1015.3
20210920073639 77 264 0.0 0.0 0.00 0.00 0.00 98 1015.0
20210920073133 77 264 0.0 0.0 0.00 0.00 0.00 98 1015.3
20210920072633 77 264 0.0 0.0 0.00 0.00 0.00 98 1015.3
20210920072132 77 264 0.0 0.0 0.00 0.00 0.00 98 1015.3
20210920071631 77 264 0.0 0.0 0.00 0.00 0.00 98 1015.3
20210920071131 77 264 0.0 0.0 0.00 0.00 0.00 98 1015.3
20210920070628 77 264 0.0 0.0 0.00 0.00 0.00 98 1015.3
20210920070127 77 264 0.0 0.0 0.00 0.00 0.00 98 1015.3
20210920065625 77 264 0.0 0.0 0.00 0.00 0.00 98 1015.3
20210920065121 77 264 0.0 0.0 0.00 0.00 0.00 98 1015.3
20210920064619 77 264 0.0 0.0 0.00 0.00 0.00 99 1015.3
20210920064117 77 264 0.0 0.0 0.00 0.00 0.00 98 1015.3
20210920063613 77 264 0.0 0.0 0.00 0.00 0.00 98 1015.3
20210920063110 77 264 0.0 0.0 0.00 0.00 0.00 99 1015.3
20210920062609 77 264 0.0 3.0 0.00 0.00 0.00 99 1015.3
20210920062107 77 264 0.0 0.0 0.00 0.00 0.00 99 1015.3
20210920061607 77 264 0.0 0.0 0.00 0.00 0.00 98 1015.3
20210920061105 77 264 0.0 0.0 0.00 0.00 0.00 99 1015.3
20210920060605 77 264 0.0 0.0 0.00 0.00 0.00 99 1015.7
20210920060101 77 264 0.0 0.0 0.00 0.00 0.00 99 1015.7
20210920055600 77 264 0.0 0.0 0.00 0.00 0.00 99 1015.3
20210920055058 77 264 0.0 0.0 0.00 0.00 0.00 99 1015.7
20210920054555 77 264 0.0 3.0 0.00 0.00 0.00 99 1015.7
20210920054055 77 264 0.0 0.0 0.00 0.00 0.00 99 1015.7
20210920053554 77 264 0.0 0.0 0.00 0.00 0.00 99 1015.7
20210920053053 77 264 0.0 0.0 0.00 0.00 0.00 99 1015.7
20210920052552 77 264 0.0 0.0 0.00 0.00 0.00 99 1016.0
20210920052049 77 264 0.0 0.0 0.00 0.00 0.00 99 1015.7
20210920051547 77 264 0.0 0.0 0.00 0.00 0.00 99 1015.7
20210920051046 77 264 0.0 0.0 0.00 0.00 0.00 99 1016.0
20210920050546 77 264 0.0 0.0 0.00 0.00 0.00 99 1015.7
20210920050044 77 264 0.0 0.0 0.00 0.85 0.85 98 1016.0
20210920045543 77 264 0.0 0.0 0.00 0.85 0.85 98 1015.7
20210920045042 77 264 0.0 0.0 0.00 0.85 0.85 99 1015.7
20210920044536 77 264 0.0 0.0 0.00 0.85 0.85 98 1015.7
20210920044034 77 264 0.0 0.0 0.00 0.85 0.85 99 1015.7
20210920043533 77 264 0.0 0.0 0.00 0.85 0.85 98 1015.7
20210920043033 77 264 0.0 0.0 0.00 0.85 0.85 99 1015.7
20210920042532 77 264 0.0 0.0 0.00 0.85 0.85 98 1016.0
20210920042031 77 264 0.0 0.0 0.00 0.85 0.85 98 1015.7
20210920041529 77 264 0.0 0.0 0.00 0.85 0.85 99 1016.0
20210920041028 77 264 0.0 0.0 0.00 0.85 0.85 98 1016.0
20210920040527 77 264 0.0 0.0 0.00 0.85 0.85 98 1016.0
20210920040025 77 264 0.0 0.0 0.00 0.85 0.85 98 1016.0
20210920035524 77 264 0.0 0.0 0.00 0.85 0.85 98 1016.0
20210920035023 77 264 0.0 0.0 0.00 0.85 0.85 98 1016.0
20210920034521 77 264 0.0 0.0 0.00 0.85 0.85 99 1016.4
20210920034020 77 264 0.0 0.0 0.00 0.85 0.85 98 1016.4
20210920033519 77 264 0.0 0.0 0.00 0.85 0.85 99 1016.4
20210920033017 77 264 0.0 0.0 0.00 0.85 0.85 99 1016.4
20210920032516 77 264 0.0 0.0 0.00 0.85 0.85 98 1016.4
20210920032014 77 264 0.0 0.0 0.00 0.85 0.85 98 1016.4
20210920031514 77 264 0.0 0.0 0.00 0.85 0.85 99 1016.4
20210920031012 77 264 0.0 0.0 0.00 0.85 0.85 98 1016.7
20210920030511 77 264 0.0 0.0 0.00 0.85 0.85 98 1016.7
20210920030010 77 264 0.0 0.0 0.00 0.85 0.85 98 1016.7
20210920025506 77 264 0.0 0.0 0.00 0.85 0.85 98 1016.4
20210920025006 77 264 0.0 0.0 0.00 0.85 0.85 98 1016.7
20210920024505 77 264 0.0 0.0 0.00 0.85 0.85 98 1016.4
20210920024004 77 264 0.0 0.0 0.00 0.85 0.85 98 1016.7
20210920023504 77 264 0.0 0.0 0.00 0.85 0.85 98 1016.4
20210920023001 77 264 0.0 0.0 0.00 0.85 0.85 98 1016.7
20210920022501 77 264 0.0 0.0 0.00 0.85 0.85 98 1016.4
20210920021959 77 264 0.0 0.0 0.00 0.85 0.85 98 1016.4
20210920021457 77 264 0.0 0.0 0.00 0.85 0.85 98 1016.4
20210920020956 77 264 0.0 0.0 0.00 0.85 0.85 98 1016.4
20210920020454 77 264 0.0 0.0 0.00 0.85 0.85 98 1016.4
20210920015953 77 264 0.0 0.0 0.00 0.85 0.85 98 1016.4
20210920015453 77 264 0.0 0.0 0.00 0.85 0.85 98 1016.4
20210920014951 77 264 0.0 0.0 0.00 0.85 0.85 98 1016.0
20210920014450 77 264 0.0 0.0 0.00 0.85 0.85 98 1016.0
20210920013948 77 264 0.0 0.0 0.00 0.85 0.85 98 1016.0
20210920013446 77 264 0.0 0.0 0.00 0.85 0.85 98 1015.7
20210920012944 77 264 0.0 0.0 0.00 0.85 0.85 98 1015.7
20210920012441 77 264 0.0 0.0 0.00 0.85 0.85 98 1015.7
20210920011940 77 264 0.0 0.0 0.00 0.85 0.85 98 1015.7
20210920011438 77 264 0.0 0.0 0.00 0.85 0.85 98 1015.7
20210920010939 77 264 0.0 0.0 0.00 0.85 0.85 98 1015.7
20210920010436 77 264 0.0 0.0 0.00 0.85 0.85 98 1015.7
20210920005933 77 264 0.0 0.0 0.00 0.85 0.85 98 1015.7
20210920005432 77 264 0.0 0.0 0.00 0.85 0.85 98 1015.7
20210920004932 77 264 0.0 0.0 0.00 0.85 0.85 98 1015.3
20210920004429 77 264 0.0 0.0 0.00 0.85 0.85 98 1015.7
20210920003929 77 264 0.0 0.0 0.00 0.85 0.85 98 1015.7
20210920003428 77 264 0.0 0.0 0.00 0.85 0.85 98 1015.3
20210920002926 77 264 0.0 0.0 0.00 0.85 0.85 98 1015.7
20210920002426 77 264 0.0 0.0 0.00 0.85 0.85 98 1015.7
20210920001924 77 264 0.0 0.0 0.00 0.85 0.85 98 1015.7
20210920001424 77 264 0.0 0.0 0.00 0.85 0.85 98 1015.7
20210920000922 77 264 0.0 0.0 0.00 0.85 0.85 98 1015.3
20210920000421 77 264 0.0 0.0 0.00 0.85 0.85 98 1015.3
20210919235920 77 264 0.0 0.0 0.00 0.85 0.85 98 1015.7
20210919235416 77 264 0.0 0.0 0.00 0.85 0.85 98 1015.7
20210919234915 77 264 0.0 0.0 0.00 0.85 0.85 98 1015.7
20210919234413 77 264 0.0 0.0 0.00 0.85 0.85 98 1015.7
20210919233913 77 264 0.0 0.0 0.00 0.85 0.85 98 1015.3
20210919233412 77 264 0.0 0.0 0.00 0.85 0.85 97 1015.3
20210919232910 77 264 0.0 0.0 0.00 0.85 0.85 97 1015.7
20210919232406 77 264 0.0 0.0 0.00 0.85 0.85 97 1015.7
20210919231905 77 264 0.0 0.0 0.00 0.85 0.85 97 1015.7
20210919231403 77 264 0.0 0.0 0.00 0.85 0.85 97 1015.7
20210919230858 77 264 0.0 0.0 0.00 0.85 0.85 97 1015.3
20210919230356 77 264 0.0 0.0 0.00 0.85 0.85 97 1015.7
20210919225853 77 264 0.0 0.0 0.00 0.85 0.85 97 1015.7
20210919225353 77 264 0.0 0.0 0.00 0.85 0.85 97 1015.7
20210919224845 77 264 0.0 0.0 0.00 0.85 0.85 97 1015.7
20210919224345 77 264 0.0 0.0 0.00 0.85 0.85 96 1015.7
20210919223842 77 264 0.0 0.0 0.00 0.85 0.85 96 1015.7
20210919223341 77 264 0.0 0.0 0.00 0.85 0.85 96 1015.7
20210919222834 77 264 0.0 0.0 0.00 0.85 0.85 96 1015.7
20210919222334 77 264 0.0 0.0 0.00 0.85 0.85 96 1015.7
20210919221834 77 264 0.0 0.0 0.00 0.85 0.85 95 1015.7
20210919221333 77 264 0.0 0.0 0.00 0.85 0.85 95 1015.7
20210919220832 78 264 0.0 0.0 0.07 0.85 0.85 95 1015.7
20210919220330 78 264 0.0 0.0 0.07 0.85 0.85 95 1016.0
20210919215829 78 264 0.0 0.0 0.07 0.84 0.84 94 1016.0
20210919215328 78 264 0.0 0.0 0.35 0.84 0.84 94 1016.0
20210919214827 78 264 0.0 0.0 0.57 0.80 0.80 94 1016.0
20210919214327 79 264 0.0 3.0 0.85 0.78 0.78 94 1016.0
20210919213826 79 264 0.0 1.0 0.85 0.72 0.72 94 1016.0
20210919213324 80 264 1.0 5.0 0.50 0.61 0.61 94 1016.4
20210919212823 80 264 0.0 0.0 1.49 0.57 0.57 94 1016.4